createdAt,value
2023-04-27T00:01:26.957Z,10.55
2023-04-27T00:04:30.868Z,10.13
2023-04-27T00:07:34.609Z,15.37
2023-04-27T00:10:38.211Z,7.83
2023-04-27T00:13:41.756Z,7.45
2023-04-27T00:16:45.345Z,8.82
2023-04-27T00:19:49.033Z,8.23
2023-04-27T00:22:52.511Z,8.53
2023-04-27T00:25:55.413Z,7.90
2023-04-27T00:28:59.455Z,11.43
2023-04-27T00:32:03.169Z,9.52
2023-04-27T00:35:07.982Z,12.75
2023-04-27T00:38:12.248Z,6.03
2023-04-27T00:41:16.003Z,5.30
2023-04-27T00:44:26.961Z,14.02
2023-04-27T00:47:31.939Z,4.38
2023-04-27T00:50:36.504Z,5.88
2023-04-27T00:53:40.182Z,8.40
2023-04-27T00:56:45.200Z,4.60
2023-04-27T00:59:48.747Z,4.97
2023-04-27T01:02:53.889Z,3.47
2023-04-27T01:05:59.846Z,6.75
2023-04-27T01:09:05.936Z,13.27
2023-04-27T01:12:09.612Z,9.27
2023-04-27T01:15:13.024Z,6.43
2023-04-27T01:18:16.354Z,16.13
2023-04-27T01:21:19.773Z,6.78
2023-04-27T01:24:23.562Z,3.93
2023-04-27T01:27:27.186Z,10.47
2023-04-27T01:30:31.269Z,5.75
2023-04-27T01:33:35.723Z,8.98
2023-04-27T01:36:39.405Z,3.92
2023-04-27T01:39:42.817Z,4.43
2023-04-27T01:42:46.448Z,3.83
2023-04-27T01:45:50.473Z,4.47
2023-04-27T01:48:53.778Z,11.80
2023-04-27T01:51:57.143Z,6.70
2023-04-27T01:55:01.283Z,7.07
2023-04-27T01:58:05.074Z,9.33
2023-04-27T02:01:09.441Z,5.82
2023-04-27T02:04:12.798Z,6.68
2023-04-27T02:07:16.261Z,4.38
2023-04-27T02:10:19.448Z,8.60
2023-04-27T02:13:22.874Z,6.63
2023-04-27T02:16:26.524Z,6.25
2023-04-27T02:19:31.664Z,11.73
2023-04-27T02:22:36.146Z,15.65
2023-04-27T02:25:39.917Z,5.90
2023-04-27T02:28:44.217Z,10.00
2023-04-27T02:31:47.524Z,4.97
2023-04-27T02:34:51.989Z,7.28
2023-04-27T02:37:55.615Z,7.88
2023-04-27T02:41:00.310Z,3.67
2023-04-27T02:44:04.608Z,10.57
2023-04-27T02:47:08.521Z,7.40
2023-04-27T02:50:43.212Z,7.82
2023-04-27T02:53:46.371Z,13.77
2023-04-27T02:56:50.366Z,5.93
2023-04-27T02:59:53.234Z,3.37
2023-04-27T03:02:57.545Z,5.97
2023-04-27T03:06:00.591Z,6.32
2023-04-27T03:09:04.554Z,5.05
2023-04-27T03:12:07.403Z,3.63
2023-04-27T03:15:11.109Z,7.07
2023-04-27T03:18:14.709Z,5.95
2023-04-27T03:21:17.654Z,10.05
2023-04-27T03:24:20.873Z,6.63
2023-04-27T03:27:25.643Z,6.77
2023-04-27T03:30:28.598Z,12.93
2023-04-27T03:33:32.600Z,6.15
2023-04-27T03:36:36.734Z,6.93
2023-04-27T03:39:39.816Z,3.38
2023-04-27T03:42:42.981Z,3.30
2023-04-27T03:45:46.776Z,3.93
2023-04-27T03:48:50.945Z,3.03
2023-04-27T03:51:54.739Z,25.60
2023-04-27T03:54:57.743Z,5.00
2023-04-27T03:58:00.660Z,3.90
2023-04-27T04:01:05.426Z,3.93
2023-04-27T04:04:08.655Z,8.13
2023-04-27T04:07:12.437Z,5.25
2023-04-27T04:10:16.889Z,5.53
2023-04-27T04:13:22.305Z,6.13
2023-04-27T04:16:25.348Z,7.70
2023-04-27T04:19:29.782Z,5.25
2023-04-27T04:22:33.116Z,9.02
2023-04-27T04:25:37.266Z,4.75
2023-04-27T04:28:40.920Z,3.90
2023-04-27T04:31:45.541Z,5.00
2023-04-27T04:34:51.845Z,5.22
2023-04-27T04:37:57.120Z,5.60
2023-04-27T04:41:00.992Z,6.97
2023-04-27T04:44:07.731Z,4.47
2023-04-27T04:47:10.756Z,6.40
2023-04-27T04:50:15.056Z,9.85
2023-04-27T04:53:18.856Z,8.75
2023-04-27T04:56:22.972Z,5.93
2023-04-27T04:59:30.380Z,5.67
2023-04-27T05:02:35.369Z,6.90
2023-04-27T05:05:38.477Z,7.30
2023-04-27T05:08:42.246Z,5.63
2023-04-27T05:11:46.110Z,3.58
2023-04-27T05:14:49.096Z,5.80
2023-04-27T05:17:51.891Z,4.53
2023-04-27T05:20:54.767Z,4.97
2023-04-27T05:23:58.407Z,5.63
2023-04-27T05:27:02.487Z,3.67
2023-04-27T05:30:05.905Z,5.67
2023-04-27T05:33:09.690Z,13.03
2023-04-27T05:36:13.341Z,5.65
2023-04-27T05:39:16.696Z,4.15
2023-04-27T05:42:20.293Z,4.03
2023-04-27T05:45:23.832Z,3.00
2023-04-27T05:48:27.458Z,3.63
2023-04-27T05:51:31.730Z,5.85
2023-04-27T05:54:34.994Z,5.70
2023-04-27T05:57:38.663Z,3.75
2023-04-27T06:00:42.784Z,10.63
2023-04-27T06:03:46.653Z,7.63
2023-04-27T06:06:50.326Z,4.97
2023-04-27T06:09:53.973Z,4.38
2023-04-27T06:12:57.015Z,4.45
2023-04-27T06:16:02.163Z,8.57
2023-04-27T06:19:05.700Z,9.00
2023-04-27T06:22:09.305Z,4.68
2023-04-27T06:25:13.516Z,5.93
2023-04-27T06:28:17.455Z,5.35
2023-04-27T06:31:21.285Z,5.50
2023-04-27T06:34:24.592Z,14.30
2023-04-27T06:37:28.300Z,7.35
2023-04-27T06:40:32.464Z,11.48
2023-04-27T06:43:36.208Z,3.88
2023-04-27T06:46:39.709Z,7.33
2023-04-27T06:49:43.299Z,13.80
2023-04-27T06:52:47.355Z,7.55
2023-04-27T06:55:51.528Z,4.47
2023-04-27T06:58:54.825Z,5.57
2023-04-27T07:01:58.506Z,5.83
2023-04-27T07:05:01.854Z,3.60
2023-04-27T07:08:07.899Z,4.75
2023-04-27T07:11:12.075Z,4.60
2023-04-27T07:14:15.307Z,10.20
2023-04-27T07:17:19.170Z,6.10
2023-04-27T07:20:22.112Z,6.97
2023-04-27T07:23:26.586Z,4.10
2023-04-27T07:26:32.481Z,5.75
2023-04-27T07:29:38.662Z,13.20
2023-04-27T07:32:42.789Z,5.37
2023-04-27T07:35:46.022Z,5.27
2023-04-27T07:38:50.349Z,4.30
2023-04-27T07:41:54.921Z,6.05
2023-04-27T07:44:57.978Z,8.63
2023-04-27T07:48:02.691Z,6.50
2023-04-27T07:51:06.555Z,17.57
2023-04-27T07:54:10.238Z,6.03
2023-04-27T07:57:14.051Z,5.93
2023-04-27T08:00:18.746Z,10.65
2023-04-27T08:03:23.658Z,8.93
2023-04-27T08:06:29.833Z,4.83
2023-04-27T08:09:33.850Z,15.32
2023-04-27T08:12:37.561Z,5.68
2023-04-27T08:15:41.147Z,11.95
2023-04-27T08:18:45.875Z,9.20
2023-04-27T08:21:49.685Z,10.33
2023-04-27T08:24:53.161Z,9.13
2023-04-27T08:27:56.740Z,7.22
2023-04-27T08:31:01.101Z,14.13
2023-04-27T08:34:04.713Z,16.60
2023-04-27T08:37:09.401Z,19.30
2023-04-27T08:40:13.627Z,18.88
2023-04-27T08:43:17.901Z,17.63
2023-04-27T08:46:27.690Z,9.57
2023-04-27T08:49:30.659Z,13.27
2023-04-27T08:52:33.739Z,8.57
2023-04-27T08:55:36.670Z,24.27
2023-04-27T08:58:40.329Z,12.95
2023-04-27T09:01:49.582Z,18.98
2023-04-27T09:04:52.999Z,8.90
2023-04-27T09:08:00.453Z,11.07
2023-04-27T09:11:04.088Z,16.70
2023-04-27T09:14:22.199Z,13.45
2023-04-27T09:17:29.510Z,9.75
2023-04-27T09:20:32.861Z,14.83
2023-04-27T09:23:42.275Z,16.50
2023-04-27T09:26:51.082Z,8.27
2023-04-27T09:29:54.721Z,11.55
2023-04-27T09:33:02.150Z,16.10
2023-04-27T09:36:07.466Z,18.63
2023-04-27T09:39:12.128Z,18.47
2023-04-27T09:42:16.665Z,21.63
2023-04-27T09:45:21.102Z,21.77
2023-04-27T09:48:26.239Z,21.65
2023-04-27T09:51:29.613Z,14.63
2023-04-27T09:54:35.017Z,18.27
2023-04-27T09:57:51.011Z,6.65
2023-04-27T10:01:09.377Z,8.32
2023-04-27T10:04:32.518Z,9.45
2023-04-27T10:07:36.550Z,10.90
2023-04-27T10:10:54.818Z,34.53
2023-04-27T10:14:08.702Z,22.00
2023-04-27T10:17:12.731Z,38.65
2023-04-27T10:20:18.350Z,78.03
2023-04-27T10:23:26.989Z,88.20
2023-04-27T10:26:30.663Z,13.80
2023-04-27T10:29:44.490Z,31.73
2023-04-27T10:32:59.266Z,16.05
2023-04-27T10:36:02.365Z,20.92
2023-04-27T10:39:32.609Z,18.63
2023-04-27T10:42:44.374Z,27.47
2023-04-27T10:45:47.800Z,29.30
2023-04-27T10:48:51.556Z,20.52
2023-04-27T10:51:57.728Z,9.20
2023-04-27T10:55:13.856Z,13.20
2023-04-27T10:58:25.442Z,13.73
2023-04-27T11:01:32.576Z,14.68
2023-04-27T11:04:45.104Z,20.55
2023-04-27T11:07:48.874Z,14.57
2023-04-27T11:10:53.355Z,23.77
2023-04-27T11:13:59.064Z,13.97
2023-04-27T11:17:02.059Z,18.13
2023-04-27T11:20:09.101Z,14.55
2023-04-27T11:23:12.733Z,21.55
2023-04-27T11:26:21.989Z,32.07
2023-04-27T11:29:25.888Z,41.23
2023-04-27T11:32:29.005Z,35.47
2023-04-27T11:35:36.056Z,20.10
2023-04-27T11:38:43.051Z,17.23
2023-04-27T11:41:47.079Z,13.43
2023-04-27T11:45:06.548Z,13.73
2023-04-27T11:48:15.345Z,28.25
2023-04-27T11:51:18.403Z,30.33
2023-04-27T11:54:29.429Z,21.90
2023-04-27T11:57:35.660Z,20.83
2023-04-27T12:00:39.331Z,45.73
2023-04-27T12:03:43.100Z,38.25
2023-04-27T12:06:46.854Z,30.90
2023-04-27T12:09:51.046Z,26.13
2023-04-27T12:12:54.715Z,11.60
2023-04-27T12:15:59.730Z,17.57
2023-04-27T12:19:04.020Z,14.20
2023-04-27T12:22:07.130Z,12.15
2023-04-27T12:25:10.417Z,14.32
2023-04-27T12:28:19.398Z,15.13
2023-04-27T12:31:26.932Z,13.97
2023-04-27T12:34:31.769Z,17.90
2023-04-27T12:37:36.151Z,18.55
2023-04-27T12:40:39.767Z,11.05
2023-04-27T12:43:44.166Z,37.73
2023-04-27T12:46:51.696Z,37.87
2023-04-27T12:49:54.752Z,34.92
2023-04-27T12:53:00.700Z,21.27
2023-04-27T12:56:05.256Z,31.35
2023-04-27T12:59:09.320Z,17.47
2023-04-27T13:02:13.447Z,17.30
2023-04-27T13:05:17.183Z,43.42
2023-04-27T13:08:21.476Z,44.60
2023-04-27T13:11:25.912Z,43.50
2023-04-27T13:14:29.527Z,50.00
2023-04-27T13:21:24.534Z,31.13
2023-04-27T13:24:30.695Z,30.75
2023-04-27T13:27:34.090Z,17.05
2023-04-27T13:30:40.097Z,21.17
2023-04-27T13:33:45.363Z,33.30
2023-04-27T13:36:49.508Z,29.63
2023-04-27T13:39:53.490Z,52.45
2023-04-27T13:42:57.070Z,24.38
2023-04-27T13:46:01.946Z,21.27
2023-04-27T13:49:05.241Z,21.53
2023-04-27T13:52:08.520Z,19.75
2023-04-27T13:55:12.110Z,26.60
2023-04-27T13:58:15.437Z,37.33
2023-04-27T14:01:19.197Z,23.57
2023-04-27T14:04:22.288Z,20.20
2023-04-27T14:07:25.588Z,23.33
2023-04-27T14:10:28.570Z,33.38
2023-04-27T14:13:32.308Z,59.95
2023-04-27T14:16:35.337Z,32.40
2023-04-27T14:19:39.057Z,28.07
2023-04-27T14:22:42.166Z,42.33
2023-04-27T14:25:45.083Z,39.15
2023-04-27T14:28:48.599Z,40.10
2023-04-27T14:31:53.661Z,38.10
2023-04-27T14:34:58.572Z,19.27
2023-04-27T14:38:02.925Z,23.70
2023-04-27T14:41:10.115Z,91.97
2023-04-27T14:44:13.393Z,96.97
2023-04-27T14:47:17.858Z,59.27
2023-04-27T14:50:20.954Z,57.27
2023-04-27T14:53:24.321Z,39.72
2023-04-27T14:56:27.933Z,32.28
2023-04-27T14:59:31.653Z,33.90
2023-04-27T15:02:35.183Z,38.70
2023-04-27T15:05:38.140Z,51.77
2023-04-27T15:08:41.799Z,51.25
2023-04-27T15:11:45.113Z,51.10
2023-04-27T15:14:50.613Z,56.30
2023-04-27T15:17:54.282Z,55.90
2023-04-27T15:20:58.701Z,59.23
2023-04-27T15:24:02.639Z,54.53
2023-04-27T15:27:08.380Z,57.15
2023-04-27T15:30:15.725Z,58.45
2023-04-27T15:33:19.400Z,60.93
2023-04-27T15:36:24.035Z,61.43
2023-04-27T15:39:28.704Z,59.85
2023-04-27T15:42:32.690Z,53.22
2023-04-27T15:45:35.603Z,42.72
2023-04-27T15:48:38.917Z,29.27
2023-04-27T15:51:42.588Z,26.20
2023-04-27T15:54:46.256Z,29.45
2023-04-27T15:57:51.158Z,26.52
2023-04-27T16:00:54.734Z,31.83
2023-04-27T16:03:58.465Z,26.47
2023-04-27T16:07:02.237Z,40.00
2023-04-27T16:10:07.704Z,37.28
2023-04-27T16:13:11.736Z,31.55
2023-04-27T16:16:15.740Z,39.33
2023-04-27T16:19:19.917Z,60.80
2023-04-27T16:22:24.266Z,86.33
2023-04-27T16:25:27.829Z,82.47
2023-04-27T16:28:32.964Z,76.93
2023-04-27T16:31:36.119Z,71.07
2023-04-27T16:34:40.249Z,46.13
2023-04-27T16:37:43.869Z,31.65
2023-04-27T16:40:47.885Z,21.73
2023-04-27T16:43:51.626Z,22.05
2023-04-27T16:46:54.942Z,18.75
2023-04-27T16:49:58.790Z,15.30
2023-04-27T16:53:12.102Z,13.18
2023-04-27T16:56:15.623Z,14.82
2023-04-27T16:59:18.480Z,11.38
2023-04-27T17:02:25.168Z,7.72
2023-04-27T17:05:29.677Z,11.47
2023-04-27T17:08:33.117Z,10.33
2023-04-27T17:11:37.709Z,11.40
2023-04-27T17:14:41.092Z,11.60
2023-04-27T17:17:45.124Z,16.25
2023-04-27T17:20:48.338Z,20.47
2023-04-27T17:23:54.139Z,20.67
2023-04-27T17:26:57.174Z,22.45
2023-04-27T17:30:00.058Z,21.08
2023-04-27T17:33:04.192Z,30.25
2023-04-27T17:36:07.783Z,29.67
2023-04-27T17:39:13.385Z,10.90
2023-04-27T17:42:17.788Z,22.98
2023-04-27T17:45:21.566Z,26.92
2023-04-27T17:48:25.624Z,33.53
2023-04-27T17:51:29.341Z,30.60
2023-04-27T17:54:32.802Z,24.10
2023-04-27T17:57:36.643Z,19.25
2023-04-27T18:00:42.038Z,13.77
2023-04-27T18:03:46.224Z,12.52
2023-04-27T18:06:49.846Z,15.47
2023-04-27T18:09:53.547Z,16.20
2023-04-27T18:12:56.658Z,10.32
2023-04-27T18:16:00.704Z,9.80
2023-04-27T18:19:04.403Z,10.27
2023-04-27T18:22:08.001Z,10.87
2023-04-27T18:25:11.892Z,11.77
2023-04-27T18:28:16.462Z,7.97
2023-04-27T18:31:21.011Z,7.28
2023-04-27T18:34:24.938Z,54.17
2023-04-27T18:37:27.957Z,51.77
2023-04-27T18:40:33.358Z,58.90
2023-04-27T18:43:40.170Z,50.65
2023-04-27T18:46:45.126Z,31.92
2023-04-27T18:49:49.040Z,28.85
2023-04-27T18:52:52.082Z,19.47
2023-04-27T18:55:56.039Z,33.05
2023-04-27T18:59:01.355Z,25.50
2023-04-27T19:02:05.385Z,25.45
2023-04-27T19:05:13.116Z,38.28
2023-04-27T19:08:17.294Z,35.43
2023-04-27T19:11:22.943Z,63.35
2023-04-27T19:14:26.365Z,43.30
2023-04-27T19:17:29.329Z,37.78
2023-04-27T19:20:32.370Z,34.03
2023-04-27T19:23:36.412Z,37.73
2023-04-27T19:26:40.436Z,35.10
2023-04-27T19:29:52.754Z,24.20
2023-04-27T19:32:56.406Z,19.95
2023-04-27T19:36:00.021Z,13.45
2023-04-27T19:39:04.462Z,23.77
2023-04-27T19:42:08.054Z,31.30
2023-04-27T19:45:12.292Z,28.35
2023-04-27T19:48:15.727Z,25.00
2023-04-27T19:51:19.648Z,27.17
2023-04-27T19:54:22.459Z,29.13
2023-04-27T19:57:25.379Z,22.27
2023-04-27T20:00:28.717Z,27.75
2023-04-27T20:03:32.132Z,28.75
2023-04-27T20:06:36.147Z,56.53
2023-04-27T20:09:39.705Z,64.10
2023-04-27T20:12:55.447Z,69.97
2023-04-27T20:16:00.434Z,57.28
2023-04-27T20:19:05.845Z,44.58
2023-04-27T20:22:10.393Z,31.45
2023-04-27T20:25:15.070Z,25.03
2023-04-27T20:28:19.500Z,26.00
2023-04-27T20:31:22.366Z,24.10
2023-04-27T20:34:25.938Z,21.75
2023-04-27T20:37:28.893Z,19.58
2023-04-27T20:40:32.413Z,18.73
2023-04-27T20:43:36.000Z,20.67
2023-04-27T20:46:39.939Z,26.33
2023-04-27T20:49:43.586Z,24.45
2023-04-27T20:52:46.795Z,30.92
2023-04-27T20:55:50.964Z,26.87
2023-04-27T20:58:54.289Z,23.65
2023-04-27T21:01:57.188Z,20.80
2023-04-27T21:04:59.985Z,25.02
2023-04-27T21:08:03.370Z,23.05
2023-04-27T21:11:06.968Z,26.07
2023-04-27T21:14:09.936Z,23.75
2023-04-27T21:17:15.628Z,20.90
2023-04-27T21:20:18.629Z,24.77
2023-04-27T21:23:21.731Z,26.13
2023-04-27T21:26:24.679Z,25.27
2023-04-27T21:29:28.551Z,24.75
2023-04-27T21:32:32.191Z,24.88
2023-04-27T21:35:36.186Z,30.80
2023-04-27T21:38:39.222Z,29.17
2023-04-27T21:41:43.090Z,22.53
2023-04-27T21:44:47.410Z,27.55
2023-04-27T21:47:50.487Z,30.95
2023-04-27T21:50:53.485Z,33.03
2023-04-27T21:53:56.571Z,38.13
2023-04-27T21:56:59.753Z,55.03
2023-04-27T22:00:08.600Z,60.55
2023-04-27T22:03:20.681Z,50.28
2023-04-27T22:06:24.449Z,55.10
2023-04-27T22:09:27.354Z,44.40
2023-04-27T22:12:31.068Z,44.53
2023-04-27T22:15:34.432Z,30.25
2023-04-27T22:18:37.834Z,37.13
2023-04-27T22:21:40.796Z,38.33
2023-04-27T22:24:44.371Z,33.47
2023-04-27T22:27:48.205Z,35.13
2023-04-27T22:30:51.159Z,59.67
2023-04-27T22:33:54.078Z,28.48
2023-04-27T22:36:57.587Z,68.32
2023-04-27T22:40:00.633Z,47.05
2023-04-27T22:43:04.490Z,42.37
2023-04-27T22:46:07.500Z,40.88
2023-04-27T22:49:11.066Z,36.40
2023-04-27T22:52:14.723Z,54.28
2023-04-27T22:55:17.612Z,54.45
2023-04-27T22:58:20.551Z,48.23
2023-04-27T23:01:25.109Z,44.03
2023-04-27T23:04:30.042Z,37.22
2023-04-27T23:07:32.953Z,36.97
2023-04-27T23:10:39.215Z,42.42
2023-04-27T23:13:42.106Z,35.63
2023-04-27T23:16:48.129Z,34.60
2023-04-27T23:19:51.132Z,34.03
2023-04-27T23:22:54.510Z,29.83
2023-04-27T23:25:57.483Z,34.88
2023-04-27T23:29:01.454Z,28.00
2023-04-27T23:32:05.346Z,25.67
2023-04-27T23:35:09.462Z,31.05
2023-04-27T23:38:13.164Z,29.20
2023-04-27T23:41:16.139Z,25.63
2023-04-27T23:44:19.409Z,27.38
2023-04-27T23:47:22.355Z,25.17
2023-04-27T23:50:26.045Z,22.98
2023-04-27T23:53:30.046Z,28.95
2023-04-27T23:56:33.294Z,29.25
2023-04-27T23:59:36.523Z,29.77
